Time;durP1;ratioP1;P1;durP2;ratioP2;P2;SDS_P1;SDS_P2;PMS_P1;PMS_P2;Temp;Humidity;BMP_temperature;BMP_pressure;BME280_temperature;BME280_humidity;BME280_pressure;Samples;Min_cycle;Max_cycle;Signal;HPM_P1;HPM_P2
2022/04/24 00:00:59;;;;;;;11.90;9.80;;;9.50;99.90;;;;;;493219;240;27987;-72
2022/04/24 00:03:00;;;;;;;12.43;9.57;;;9.50;99.90;;;;;;493202;241;27833;-70
2022/04/24 00:05:01;;;;;;;13.00;9.27;;;9.50;99.90;;;;;;493224;241;27951;-71
2022/04/24 00:07:03;;;;;;;10.23;8.47;;;9.50;99.90;;;;;;493193;241;27862;-70
2022/04/24 00:09:04;;;;;;;11.30;9.37;;;9.50;99.90;;;;;;493201;241;27618;-70
2022/04/24 00:11:05;;;;;;;12.73;9.77;;;9.50;99.90;;;;;;493211;241;27983;-71
2022/04/24 00:13:06;;;;;;;13.47;10.27;;;9.40;99.90;;;;;;493129;241;28048;-71
2022/04/24 00:15:08;;;;;;;14.43;10.63;;;9.50;99.90;;;;;;493212;240;28357;-71
2022/04/24 00:17:09;;;;;;;13.10;10.30;;;9.50;99.90;;;;;;493182;241;28479;-72
2022/04/24 00:19:10;;;;;;;14.13;11.20;;;9.50;99.90;;;;;;493219;241;27732;-70
2022/04/24 00:21:12;;;;;;;13.60;10.93;;;9.50;99.90;;;;;;493224;240;27869;-70
2022/04/24 00:23:13;;;;;;;13.53;10.77;;;9.50;99.90;;;;;;493205;240;28036;-70
2022/04/24 00:25:14;;;;;;;15.47;11.77;;;9.40;99.90;;;;;;493208;240;27938;-70
2022/04/24 00:27:15;;;;;;;12.30;10.33;;;9.40;99.90;;;;;;493189;241;27763;-70
2022/04/24 00:29:17;;;;;;;11.57;10.17;;;9.40;99.90;;;;;;493201;241;27858;-70
2022/04/24 00:31:18;;;;;;;15.93;11.47;;;9.40;99.90;;;;;;493222;240;28085;-73
2022/04/24 00:33:19;;;;;;;13.53;11.27;;;9.40;99.90;;;;;;493215;241;28422;-70
2022/04/24 00:35:20;;;;;;;16.17;11.47;;;9.40;99.90;;;;;;493227;240;28357;-71
2022/04/24 00:37:22;;;;;;;17.40;11.57;;;9.40;99.90;;;;;;493172;241;27917;-70
2022/04/24 00:39:23;;;;;;;16.23;10.83;;;9.40;99.90;;;;;;493218;241;28045;-70
2022/04/24 00:41:24;;;;;;;15.13;11.37;;;9.40;99.90;;;;;;493216;240;27862;-70
2022/04/24 00:43:25;;;;;;;15.80;11.00;;;9.40;99.90;;;;;;493208;241;27743;-70
2022/04/24 00:45:27;;;;;;;13.87;10.33;;;9.40;99.90;;;;;;493221;241;27765;-72
2022/04/24 00:47:28;;;;;;;14.97;11.13;;;9.40;99.90;;;;;;493207;241;28229;-70
2022/04/24 00:49:29;;;;;;;13.50;11.00;;;9.50;99.90;;;;;;493206;241;27948;-71
2022/04/24 00:51:30;;;;;;;13.00;10.10;;;9.50;99.90;;;;;;493230;240;28012;-73
2022/04/24 00:53:32;;;;;;;15.03;10.43;;;9.40;99.90;;;;;;493214;241;28549;-70
2022/04/24 00:55:33;;;;;;;15.43;10.50;;;9.40;99.90;;;;;;493215;240;27882;-71
2022/04/24 00:57:35;;;;;;;14.30;10.50;;;9.40;99.90;;;;;;493215;241;27970;-72
2022/04/24 00:59:37;;;;;;;12.93;10.23;;;9.40;99.90;;;;;;493227;240;27963;-71
2022/04/24 01:01:38;;;;;;;12.30;10.10;;;9.40;99.90;;;;;;493225;240;28527;-71
2022/04/24 01:03:39;;;;;;;14.50;10.67;;;9.40;99.90;;;;;;493211;241;28228;-72
2022/04/24 01:05:40;;;;;;;13.77;10.57;;;9.40;99.90;;;;;;493231;241;28393;-71
2022/04/24 01:07:41;;;;;;;12.10;9.47;;;9.40;99.90;;;;;;493217;241;27850;-71
2022/04/24 01:09:43;;;;;;;12.03;9.50;;;9.50;99.90;;;;;;493224;241;27935;-74
2022/04/24 01:11:44;;;;;;;11.50;10.00;;;9.50;99.90;;;;;;493196;241;27976;-71
2022/04/24 01:13:45;;;;;;;11.63;9.97;;;9.40;99.90;;;;;;493231;241;27980;-70
2022/04/24 01:15:46;;;;;;;15.10;10.20;;;9.40;99.90;;;;;;493219;241;27839;-71
2022/04/24 01:17:48;;;;;;;12.17;10.40;;;9.40;99.90;;;;;;493232;241;27938;-70
2022/04/24 01:19:49;;;;;;;10.70;9.30;;;9.40;99.90;;;;;;493197;241;27893;-71
2022/04/24 01:21:50;;;;;;;11.63;10.13;;;9.30;99.90;;;;;;493214;241;28183;-70
2022/04/24 01:23:51;;;;;;;14.03;10.20;;;9.30;99.90;;;;;;493235;241;28238;-70
2022/04/24 01:25:53;;;;;;;14.73;10.40;;;9.30;99.90;;;;;;493193;241;28421;-69
2022/04/24 01:27:54;;;;;;;14.33;10.20;;;9.30;99.90;;;;;;493224;241;27858;-70
2022/04/24 01:29:55;;;;;;;12.53;10.50;;;9.30;99.90;;;;;;493217;240;28013;-74
2022/04/24 01:31:56;;;;;;;11.70;9.70;;;9.20;99.90;;;;;;493234;241;27895;-69
2022/04/24 01:33:58;;;;;;;11.80;9.87;;;9.30;99.90;;;;;;493199;241;28085;-71
2022/04/24 01:35:59;;;;;;;15.23;11.10;;;9.30;99.90;;;;;;493200;241;27964;-70
2022/04/24 01:38:00;;;;;;;13.57;10.73;;;9.30;99.90;;;;;;493205;241;27895;-71
2022/04/24 01:40:01;;;;;;;11.23;8.97;;;9.30;99.90;;;;;;493213;241;27974;-71
2022/04/24 01:42:03;;;;;;;12.33;10.40;;;9.30;99.90;;;;;;493217;241;28398;-71
2022/04/24 01:44:04;;;;;;;13.30;10.50;;;9.40;99.90;;;;;;493208;241;28136;-71
2022/04/24 01:46:05;;;;;;;12.60;10.30;;;9.40;99.90;;;;;;493210;241;28708;-69
2022/04/24 01:48:06;;;;;;;11.17;9.90;;;9.40;99.90;;;;;;493206;241;28094;-70
2022/04/24 01:50:08;;;;;;;10.27;8.83;;;9.40;99.90;;;;;;493224;241;27783;-70
2022/04/24 01:52:09;;;;;;;11.20;9.80;;;9.30;99.90;;;;;;493191;241;27986;-70
2022/04/24 01:54:10;;;;;;;14.00;10.13;;;9.30;99.90;;;;;;493183;241;27504;-70
2022/04/24 01:56:12;;;;;;;12.30;10.13;;;9.40;99.90;;;;;;493217;240;27873;-74
2022/04/24 01:58:14;;;;;;;12.63;10.50;;;9.40;99.90;;;;;;493221;240;27785;-70
2022/04/24 02:00:15;;;;;;;13.30;10.23;;;9.50;99.90;;;;;;493184;241;28495;-71
2022/04/24 02:02:16;;;;;;;12.13;9.80;;;9.50;99.90;;;;;;493184;241;28425;-71
2022/04/24 02:04:27;;;;;;;11.53;9.73;;;9.50;99.90;;;;;;493184;241;28795;-70
2022/04/24 02:06:19;;;;;;;10.77;8.67;;;9.50;99.90;;;;;;492665;241;27820;-71
2022/04/24 02:08:20;;;;;;;8.90;8.00;;;9.50;99.90;;;;;;493203;241;27527;-74
2022/04/24 02:10:21;;;;;;;9.10;8.10;;;9.60;99.90;;;;;;493203;241;27782;-70
2022/04/24 02:12:22;;;;;;;8.10;7.30;;;9.60;99.90;;;;;;493223;241;27873;-70
2022/04/24 02:14:24;;;;;;;9.73;8.00;;;9.60;99.90;;;;;;493168;241;27975;-70
2022/04/24 02:16:25;;;;;;;8.50;7.43;;;9.50;99.90;;;;;;493211;241;27805;-70
2022/04/24 02:18:27;;;;;;;8.40;7.30;;;9.60;99.90;;;;;;493164;241;27881;-71
2022/04/24 02:20:31;;;;;;;8.00;7.20;;;9.50;99.90;;;;;;493192;241;27827;-70
2022/04/24 02:22:29;;;;;;;7.13;6.43;;;9.50;99.90;;;;;;493003;241;28279;-70
2022/04/24 02:24:30;;;;;;;7.90;7.00;;;9.50;99.90;;;;;;493181;241;27980;-70
2022/04/24 02:26:31;;;;;;;6.63;6.03;;;9.50;99.90;;;;;;493192;241;27821;-70
2022/04/24 02:28:32;;;;;;;7.03;6.33;;;9.50;99.90;;;;;;493202;241;27891;-71
2022/04/24 02:30:35;;;;;;;7.50;6.20;;;9.50;99.90;;;;;;493205;241;27555;-68
2022/04/24 02:32:35;;;;;;;6.10;5.50;;;9.60;99.90;;;;;;493174;241;28449;-68
2022/04/24 02:34:36;;;;;;;5.90;5.30;;;9.60;99.90;;;;;;493247;241;28997;-71
2022/04/24 02:36:37;;;;;;;5.60;5.10;;;9.60;99.90;;;;;;493205;241;28246;-69
2022/04/24 02:38:39;;;;;;;6.07;5.47;;;9.60;99.90;;;;;;493182;241;28113;-71
2022/04/24 02:40:40;;;;;;;5.53;4.93;;;9.60;99.90;;;;;;493235;241;28231;-71
2022/04/24 02:42:41;;;;;;;6.50;5.90;;;9.50;99.90;;;;;;493204;241;28354;-71
2022/04/24 02:44:42;;;;;;;8.10;7.07;;;9.40;99.90;;;;;;493143;241;27745;-70
2022/04/24 02:46:44;;;;;;;8.70;7.37;;;9.30;99.90;;;;;;493213;241;27722;-70
2022/04/24 02:48:45;;;;;;;7.80;7.03;;;9.30;99.90;;;;;;493180;241;27814;-71
2022/04/24 02:50:46;;;;;;;8.50;6.80;;;9.30;99.90;;;;;;493198;241;27730;-70
2022/04/24 02:52:47;;;;;;;7.23;6.53;;;9.40;99.90;;;;;;493186;241;27901;-69
2022/04/24 02:54:49;;;;;;;6.53;5.93;;;9.40;99.90;;;;;;493182;241;28030;-71
2022/04/24 02:56:50;;;;;;;7.30;6.53;;;9.50;99.90;;;;;;493185;241;27953;-71
2022/04/24 02:58:51;;;;;;;7.33;6.63;;;9.50;99.90;;;;;;493178;241;27787;-73
2022/04/24 03:00:54;;;;;;;5.90;5.30;;;9.40;99.90;;;;;;493212;241;27561;-70
2022/04/24 03:02:54;;;;;;;6.47;5.83;;;9.40;99.90;;;;;;493186;241;27957;-71
2022/04/24 03:04:55;;;;;;;6.40;5.80;;;9.40;99.90;;;;;;493210;241;27969;-71
2022/04/24 03:06:56;;;;;;;6.23;5.63;;;9.40;99.90;;;;;;493196;241;27847;-71
2022/04/24 03:08:57;;;;;;;5.93;5.30;;;9.40;99.90;;;;;;493193;241;28032;-72
2022/04/24 03:10:59;;;;;;;7.03;5.70;;;9.40;99.90;;;;;;493204;241;27851;-71
2022/04/24 03:13:00;;;;;;;6.17;5.57;;;9.30;99.90;;;;;;493198;241;28383;-71
2022/04/24 03:15:02;;;;;;;5.97;5.33;;;9.30;99.90;;;;;;493198;241;28835;-71
2022/04/24 03:17:02;;;;;;;5.80;5.30;;;9.40;99.90;;;;;;493213;241;28024;-72
2022/04/24 03:19:04;;;;;;;5.63;5.13;;;9.40;99.90;;;;;;493193;241;28496;-72
2022/04/24 03:21:05;;;;;;;5.20;4.70;;;9.40;99.90;;;;;;493214;241;28423;-70
2022/04/24 03:23:06;;;;;;;5.53;5.00;;;9.40;99.90;;;;;;493194;241;27883;-71
2022/04/24 03:25:07;;;;;;;6.40;5.77;;;9.30;99.90;;;;;;493143;241;27862;-71
2022/04/24 03:27:09;;;;;;;6.43;5.83;;;9.40;99.90;;;;;;493191;241;27932;-72
2022/04/24 03:29:10;;;;;;;6.43;5.83;;;9.30;99.90;;;;;;493205;241;27777;-74
2022/04/24 03:31:12;;;;;;;6.60;6.00;;;9.30;99.90;;;;;;493205;237;27847;-72
2022/04/24 03:33:12;;;;;;;6.13;5.53;;;9.30;99.90;;;;;;493197;241;27733;-72
2022/04/24 03:35:14;;;;;;;7.47;6.70;;;9.40;99.90;;;;;;493195;241;27958;-71
2022/04/24 03:37:15;;;;;;;8.53;7.40;;;9.30;99.90;;;;;;492863;241;27850;-71
2022/04/24 03:39:16;;;;;;;9.43;8.20;;;9.20;99.90;;;;;;492976;241;27975;-73
2022/04/24 03:41:17;;;;;;;9.87;8.43;;;9.20;99.90;;;;;;493142;241;28050;-72
2022/04/24 03:43:19;;;;;;;12.10;9.03;;;9.20;99.90;;;;;;493214;241;27788;-70
2022/04/24 03:45:20;;;;;;;11.03;9.33;;;9.20;99.90;;;;;;493205;241;27983;-71
2022/04/24 03:47:21;;;;;;;10.90;9.10;;;9.20;99.90;;;;;;493218;241;27564;-71
2022/04/24 03:49:22;;;;;;;10.20;8.70;;;9.20;99.90;;;;;;493225;241;28586;-71
2022/04/24 03:51:24;;;;;;;13.00;10.03;;;9.20;99.90;;;;;;493199;241;28188;-71
2022/04/24 03:53:25;;;;;;;10.03;8.90;;;9.20;99.90;;;;;;493231;240;28357;-71
2022/04/24 03:55:29;;;;;;;11.30;9.57;;;9.20;99.90;;;;;;493216;241;27889;-71
2022/04/24 03:57:27;;;;;;;12.07;10.13;;;9.20;99.90;;;;;;493206;241;27919;-71
2022/04/24 03:59:29;;;;;;;13.93;10.67;;;9.10;99.90;;;;;;493234;241;27825;-74
2022/04/24 04:01:30;;;;;;;11.40;9.40;;;9.10;99.90;;;;;;493274;240;27762;-70
2022/04/24 04:03:31;;;;;;;11.43;9.93;;;9.10;99.90;;;;;;493240;241;27383;-70
2022/04/24 04:05:33;;;;;;;10.30;9.20;;;9.10;99.90;;;;;;493233;241;28068;-71
2022/04/24 04:07:34;;;;;;;9.97;8.90;;;9.20;99.90;;;;;;493280;241;27880;-71
2022/04/24 04:09:35;;;;;;;10.33;8.33;;;9.20;99.90;;;;;;493312;241;27983;-71
2022/04/24 04:11:36;;;;;;;8.37;7.43;;;9.30;99.90;;;;;;493275;241;27957;-71
2022/04/24 04:13:37;;;;;;;8.03;6.90;;;9.40;99.90;;;;;;493249;241;28472;-71
2022/04/24 04:15:39;;;;;;;10.60;8.27;;;9.40;99.90;;;;;;493219;241;28504;-72
2022/04/24 04:17:40;;;;;;;8.57;7.77;;;9.30;99.90;;;;;;493227;241;28465;-71
2022/04/24 04:19:41;;;;;;;8.50;7.60;;;9.30;99.90;;;;;;493201;241;28486;-72
2022/04/24 04:21:46;;;;;;;8.93;6.50;;;9.20;99.90;;;;;;493155;241;27852;-71
2022/04/24 04:23:44;;;;;;;7.00;6.30;;;9.20;99.90;;;;;;493008;241;27431;-72
2022/04/24 04:25:45;;;;;;;6.43;5.83;;;9.20;99.90;;;;;;493133;241;27870;-71
2022/04/24 04:27:47;;;;;;;7.17;6.47;;;9.20;99.90;;;;;;493236;241;27551;-71
2022/04/24 04:29:47;;;;;;;7.30;6.20;;;9.10;99.90;;;;;;493213;241;27751;-72
2022/04/24 04:31:49;;;;;;;6.17;5.57;;;9.10;99.90;;;;;;493213;241;28043;-71
2022/04/24 04:33:50;;;;;;;7.87;6.33;;;9.10;99.90;;;;;;493185;241;28239;-71
2022/04/24 04:35:51;;;;;;;8.83;6.53;;;9.10;99.90;;;;;;493181;241;28012;-70
2022/04/24 04:37:52;;;;;;;7.20;6.50;;;9.00;99.90;;;;;;493206;241;27609;-71
2022/04/24 04:39:54;;;;;;;7.07;6.27;;;9.00;99.90;;;;;;493197;241;27737;-71
2022/04/24 04:41:55;;;;;;;7.07;6.37;;;9.00;99.90;;;;;;493200;241;27753;-70
2022/04/24 04:43:56;;;;;;;7.37;6.67;;;9.10;99.90;;;;;;493210;241;27897;-71
2022/04/24 04:45:57;;;;;;;7.43;6.60;;;9.10;99.90;;;;;;493195;241;28003;-71
2022/04/24 04:47:59;;;;;;;8.40;6.30;;;9.10;99.90;;;;;;493196;241;27452;-71
2022/04/24 04:50:02;;;;;;;8.07;7.23;;;9.10;99.90;;;;;;493202;241;28746;-72
2022/04/24 04:52:01;;;;;;;6.37;5.77;;;9.10;99.90;;;;;;493145;241;28526;-70
2022/04/24 04:54:02;;;;;;;8.70;7.00;;;9.00;99.90;;;;;;493200;241;28003;-70
2022/04/24 04:56:04;;;;;;;7.30;6.30;;;9.10;99.90;;;;;;493204;241;28300;-70
2022/04/24 04:58:05;;;;;;;8.30;6.50;;;9.00;99.90;;;;;;493191;241;30047;-70
2022/04/24 05:00:07;;;;;;;7.23;6.53;;;9.10;99.90;;;;;;493201;241;27924;-71
2022/04/24 05:02:07;;;;;;;6.53;5.90;;;9.10;99.90;;;;;;493207;241;27972;-70
2022/04/24 05:04:09;;;;;;;7.17;6.47;;;9.10;99.90;;;;;;493194;241;27857;-72
2022/04/24 05:06:10;;;;;;;6.37;5.77;;;9.10;99.90;;;;;;493180;241;27951;-71
2022/04/24 05:08:11;;;;;;;6.30;5.70;;;9.10;99.90;;;;;;493191;241;27901;-70
2022/04/24 05:10:12;;;;;;;6.10;5.50;;;9.10;99.90;;;;;;493218;241;27860;-73
2022/04/24 05:12:14;;;;;;;6.20;5.60;;;9.10;99.90;;;;;;493213;241;27973;-70
2022/04/24 05:14:15;;;;;;;5.57;5.00;;;9.10;99.90;;;;;;493195;240;27905;-71
2022/04/24 05:16:16;;;;;;;6.10;5.40;;;9.10;99.90;;;;;;493226;241;27735;-70
2022/04/24 05:18:19;;;;;;;5.73;5.10;;;9.10;99.90;;;;;;493223;241;28035;-72
2022/04/24 05:20:19;;;;;;;5.60;5.10;;;9.10;99.90;;;;;;493183;241;27878;-73
2022/04/24 05:22:20;;;;;;;5.53;5.03;;;9.10;99.90;;;;;;493185;241;27701;-70
2022/04/24 05:24:21;;;;;;;7.60;5.77;;;9.00;99.90;;;;;;493221;241;27817;-72
2022/04/24 05:26:22;;;;;;;6.40;5.80;;;9.00;99.90;;;;;;493217;241;27908;-70
2022/04/24 05:28:24;;;;;;;6.67;5.93;;;9.00;99.90;;;;;;493191;241;28411;-70
2022/04/24 05:30:26;;;;;;;5.70;5.10;;;9.00;99.90;;;;;;493210;241;28568;-72
2022/04/24 05:32:26;;;;;;;5.83;5.23;;;9.00;99.90;;;;;;493198;241;27945;-70
2022/04/24 05:34:27;;;;;;;5.63;5.07;;;9.00;99.90;;;;;;493166;241;28231;-70
2022/04/24 05:36:29;;;;;;;5.90;5.30;;;9.00;99.90;;;;;;493187;241;28289;-70
2022/04/24 05:38:30;;;;;;;5.90;5.30;;;9.00;99.90;;;;;;493184;241;28459;-70
2022/04/24 05:40:31;;;;;;;5.87;5.37;;;8.90;99.90;;;;;;492989;241;27783;-71
2022/04/24 05:42:32;;;;;;;5.80;5.30;;;8.90;99.90;;;;;;493166;241;27832;-70
2022/04/24 05:44:34;;;;;;;6.83;5.97;;;8.90;99.90;;;;;;493194;241;27885;-72
2022/04/24 05:46:35;;;;;;;5.50;4.90;;;8.90;99.90;;;;;;493182;241;27491;-70
2022/04/24 05:48:36;;;;;;;6.27;5.67;;;8.90;99.90;;;;;;493191;241;27844;-72
2022/04/24 05:50:37;;;;;;;6.90;5.90;;;8.90;99.90;;;;;;493212;241;27873;-73
2022/04/24 05:52:39;;;;;;;6.57;5.90;;;8.80;99.90;;;;;;493195;241;27732;-70
2022/04/24 05:54:40;;;;;;;6.20;5.60;;;8.80;99.90;;;;;;493169;241;27889;-70
2022/04/24 05:56:41;;;;;;;6.50;5.80;;;8.80;99.90;;;;;;493215;241;27537;-70
2022/04/24 05:58:42;;;;;;;6.30;5.70;;;8.80;99.90;;;;;;493219;241;27724;-71
2022/04/24 06:00:44;;;;;;;6.13;5.53;;;8.80;99.90;;;;;;493149;241;27891;-74
2022/04/24 06:02:45;;;;;;;6.60;6.00;;;8.80;99.90;;;;;;493180;241;27503;-70
2022/04/24 06:04:46;;;;;;;7.07;6.20;;;8.80;99.90;;;;;;493132;241;27540;-69
2022/04/24 06:06:47;;;;;;;6.30;5.70;;;8.80;99.90;;;;;;493120;241;27836;-70
2022/04/24 06:08:49;;;;;;;6.20;5.60;;;8.80;99.90;;;;;;493191;241;28299;-71
2022/04/24 06:10:50;;;;;;;6.10;5.50;;;8.80;99.90;;;;;;493207;241;28334;-75
2022/04/24 06:12:51;;;;;;;6.40;5.70;;;8.80;99.90;;;;;;493195;241;28475;-71
2022/04/24 06:14:52;;;;;;;6.97;5.97;;;8.80;99.90;;;;;;493172;241;28342;-70
2022/04/24 06:16:54;;;;;;;6.20;5.60;;;8.80;99.90;;;;;;493184;241;28176;-70
2022/04/24 06:18:55;;;;;;;6.70;6.00;;;8.80;99.90;;;;;;493238;241;27977;-71
2022/04/24 06:20:56;;;;;;;6.87;5.80;;;8.80;99.90;;;;;;493257;241;27889;-73
2022/04/24 06:22:57;;;;;;;6.50;5.73;;;8.80;99.90;;;;;;493244;241;27509;-70
2022/04/24 06:24:59;;;;;;;6.27;5.67;;;8.80;99.90;;;;;;493228;241;27613;-71
2022/04/24 06:27:00;;;;;;;6.20;5.60;;;8.80;99.90;;;;;;493199;241;27942;-70
2022/04/24 06:29:02;;;;;;;6.07;5.30;;;8.90;99.90;;;;;;493205;241;27922;-71
2022/04/24 06:31:02;;;;;;;6.13;5.37;;;8.90;99.90;;;;;;493186;241;27826;-71
2022/04/24 06:33:04;;;;;;;6.30;5.70;;;8.90;99.90;;;;;;493158;241;27861;-70
2022/04/24 06:35:05;;;;;;;6.30;5.70;;;8.90;99.90;;;;;;493200;241;27891;-72
2022/04/24 06:37:06;;;;;;;6.23;5.63;;;8.90;99.90;;;;;;493185;241;27677;-71
2022/04/24 06:39:07;;;;;;;6.83;5.30;;;8.90;99.90;;;;;;493196;241;28016;-68
2022/04/24 06:41:09;;;;;;;6.23;5.60;;;8.90;99.90;;;;;;493123;241;28283;-71
2022/04/24 06:43:10;;;;;;;6.00;5.40;;;8.90;99.90;;;;;;493197;241;27550;-70
2022/04/24 06:45:11;;;;;;;6.10;5.50;;;8.90;99.90;;;;;;493197;241;28246;-71
2022/04/24 06:47:12;;;;;;;7.80;5.33;;;8.90;99.90;;;;;;493176;241;27946;-71
2022/04/24 06:49:14;;;;;;;6.03;5.43;;;8.90;99.90;;;;;;493188;241;28367;-72
2022/04/24 06:51:15;;;;;;;6.83;6.13;;;8.80;99.90;;;;;;493180;241;29257;-71
2022/04/24 06:53:20;;;;;;;9.13;7.80;;;8.70;99.90;;;;;;493175;241;28049;-72
2022/04/24 06:55:20;;;;;;;11.23;8.77;;;8.60;99.90;;;;;;493185;241;27492;-71
2022/04/24 06:57:21;;;;;;;8.57;6.93;;;8.60;99.90;;;;;;493174;241;27782;-74
2022/04/24 06:59:23;;;;;;;8.23;7.43;;;8.70;99.90;;;;;;493180;241;27733;-69
2022/04/24 07:01:25;;;;;;;8.43;7.33;;;8.60;99.90;;;;;;493138;241;27836;-71
2022/04/24 07:03:26;;;;;;;9.17;8.20;;;8.60;99.90;;;;;;493182;241;28097;-71
2022/04/24 07:05:26;;;;;;;9.90;7.47;;;8.50;99.90;;;;;;493194;241;27956;-71
2022/04/24 07:07:28;;;;;;;7.70;6.63;;;8.60;99.90;;;;;;493196;241;27756;-73
2022/04/24 07:09:29;;;;;;;6.60;5.97;;;8.70;99.90;;;;;;493191;241;27894;-70
2022/04/24 07:11:30;;;;;;;6.87;6.13;;;8.80;99.90;;;;;;493173;241;27840;-69
2022/04/24 07:13:31;;;;;;;6.63;5.90;;;8.80;99.90;;;;;;493186;241;27969;-70
2022/04/24 07:15:33;;;;;;;6.40;5.80;;;8.80;99.90;;;;;;493150;241;27921;-71
2022/04/24 07:17:34;;;;;;;7.00;6.20;;;8.80;99.90;;;;;;493171;241;27822;-73
2022/04/24 07:19:35;;;;;;;6.77;6.03;;;8.80;99.90;;;;;;493186;241;27714;-70
2022/04/24 07:21:36;;;;;;;7.17;6.47;;;8.70;99.90;;;;;;493163;241;28099;-71
2022/04/24 07:23:38;;;;;;;7.17;5.83;;;8.70;99.90;;;;;;493178;241;28174;-71
2022/04/24 07:25:40;;;;;;;5.63;5.13;;;8.70;99.90;;;;;;493195;241;28270;-71
2022/04/24 07:27:40;;;;;;;7.03;6.33;;;8.60;99.90;;;;;;493182;241;28070;-73
2022/04/24 07:29:41;;;;;;;7.20;6.50;;;8.60;99.90;;;;;;493213;241;28259;-71
2022/04/24 07:31:43;;;;;;;8.10;7.30;;;8.60;99.90;;;;;;493193;241;27856;-72
2022/04/24 07:33:44;;;;;;;8.43;7.53;;;8.60;99.90;;;;;;493218;241;28032;-70
2022/04/24 07:35:45;;;;;;;8.40;7.27;;;8.60;99.90;;;;;;493155;241;27824;-71
2022/04/24 07:37:46;;;;;;;7.70;6.80;;;8.60;99.90;;;;;;492663;241;27843;-72
2022/04/24 07:39:48;;;;;;;7.83;6.63;;;8.70;99.90;;;;;;492976;241;27958;-72
2022/04/24 07:41:49;;;;;;;7.53;6.00;;;8.70;99.90;;;;;;493129;241;27892;-71
2022/04/24 07:43:50;;;;;;;6.97;6.27;;;8.70;99.90;;;;;;493178;241;28188;-71
2022/04/24 07:45:51;;;;;;;6.07;5.53;;;8.80;99.90;;;;;;493184;241;27890;-72
2022/04/24 07:47:53;;;;;;;7.30;6.07;;;8.80;99.90;;;;;;493176;241;27946;-72
2022/04/24 07:49:54;;;;;;;7.90;6.03;;;8.90;99.90;;;;;;493181;241;27597;-71
2022/04/24 07:51:55;;;;;;;7.07;5.53;;;8.90;99.90;;;;;;493202;241;27879;-71
2022/04/24 07:53:56;;;;;;;6.83;5.80;;;8.80;99.90;;;;;;493200;241;27847;-71
2022/04/24 07:55:58;;;;;;;6.00;5.40;;;8.70;99.90;;;;;;493204;241;27848;-71
2022/04/24 07:57:59;;;;;;;5.70;5.20;;;8.70;99.90;;;;;;493219;241;27984;-73
2022/04/24 08:00:00;;;;;;;6.63;5.70;;;8.80;99.90;;;;;;493220;241;28179;-70
2022/04/24 08:02:01;;;;;;;6.10;5.20;;;8.70;99.90;;;;;;493174;241;28793;-72
2022/04/24 08:04:03;;;;;;;6.03;5.43;;;8.70;99.90;;;;;;493228;241;29102;-71
2022/04/24 08:06:04;;;;;;;8.83;6.63;;;8.80;99.90;;;;;;493194;241;28427;-72
2022/04/24 08:08:05;;;;;;;6.63;6.00;;;8.60;99.90;;;;;;493189;241;28460;-72
2022/04/24 08:10:06;;;;;;;6.60;6.00;;;8.60;99.90;;;;;;493203;241;28485;-71
2022/04/24 08:12:08;;;;;;;8.20;6.63;;;8.60;99.90;;;;;;493204;241;27576;-71
2022/04/24 08:14:09;;;;;;;8.07;6.90;;;8.60;99.90;;;;;;493207;241;27942;-71
2022/04/24 08:16:10;;;;;;;7.57;6.77;;;8.50;99.90;;;;;;493155;241;27587;-71
2022/04/24 08:18:11;;;;;;;8.80;6.70;;;8.60;99.90;;;;;;493213;241;27876;-72
2022/04/24 08:20:13;;;;;;;9.03;6.60;;;8.60;99.90;;;;;;493077;241;27876;-71
2022/04/24 08:22:14;;;;;;;7.20;6.47;;;8.60;99.90;;;;;;493206;241;28012;-71
2022/04/24 08:24:15;;;;;;;7.10;6.40;;;8.70;99.90;;;;;;493196;241;27851;-70
2022/04/24 08:26:18;;;;;;;6.40;5.80;;;8.60;99.90;;;;;;493191;241;27810;-70
2022/04/24 08:28:18;;;;;;;6.40;5.77;;;8.70;99.90;;;;;;493160;241;27893;-72
2022/04/24 08:30:19;;;;;;;6.97;6.27;;;8.70;99.90;;;;;;493188;241;27912;-70
2022/04/24 08:32:24;;;;;;;6.00;5.30;;;8.80;99.90;;;;;;493194;241;27890;-71
2022/04/24 08:34:21;;;;;;;5.97;5.37;;;8.90;99.90;;;;;;493163;241;27848;-70
2022/04/24 08:36:23;;;;;;;5.93;5.37;;;8.90;99.90;;;;;;493172;241;27897;-71
2022/04/24 08:38:24;;;;;;;6.40;5.80;;;8.90;99.90;;;;;;493211;241;28358;-72
2022/04/24 08:40:25;;;;;;;5.97;5.37;;;8.80;99.90;;;;;;493191;241;28311;-71
2022/04/24 08:42:27;;;;;;;5.43;4.93;;;8.80;99.90;;;;;;493201;241;27869;-71
2022/04/24 08:44:29;;;;;;;6.60;5.90;;;8.80;99.90;;;;;;493212;241;29304;-70
2022/04/24 08:46:29;;;;;;;6.50;5.90;;;8.90;99.90;;;;;;493176;241;28476;-70
2022/04/24 08:48:30;;;;;;;6.10;5.50;;;9.00;99.90;;;;;;493201;241;28110;-71
2022/04/24 08:50:31;;;;;;;5.63;5.13;;;9.10;99.90;;;;;;493236;241;27608;-71
2022/04/24 08:52:33;;;;;;;5.63;4.60;;;9.20;99.90;;;;;;493202;241;27406;-71
2022/04/24 08:54:34;;;;;;;6.40;5.37;;;9.30;99.90;;;;;;493223;241;27936;-70
2022/04/24 08:56:37;;;;;;;5.33;4.83;;;9.30;99.90;;;;;;493213;241;27937;-70
2022/04/24 08:58:36;;;;;;;5.80;5.30;;;9.20;99.90;;;;;;493202;241;27982;-72
2022/04/24 09:00:38;;;;;;;5.80;5.20;;;9.30;99.90;;;;;;493192;241;27953;-70
2022/04/24 09:02:39;;;;;;;5.50;4.90;;;9.30;99.90;;;;;;493181;241;27798;-70
2022/04/24 09:04:40;;;;;;;6.53;5.40;;;9.30;99.90;;;;;;493206;241;27893;-70
2022/04/24 09:06:42;;;;;;;5.10;4.60;;;9.30;99.90;;;;;;493075;241;27726;-70
2022/04/24 09:08:43;;;;;;;5.73;5.13;;;9.30;99.90;;;;;;493197;241;27895;-73
2022/04/24 09:10:44;;;;;;;4.90;4.50;;;9.30;99.90;;;;;;493223;241;27950;-70
2022/04/24 09:12:45;;;;;;;5.17;4.50;;;9.30;99.90;;;;;;493230;241;28362;-71
2022/04/24 09:14:46;;;;;;;5.70;5.00;;;9.30;99.90;;;;;;493188;241;27585;-72
2022/04/24 09:16:51;;;;;;;6.23;4.57;;;9.30;99.90;;;;;;493217;241;27881;-71
2022/04/24 09:18:49;;;;;;;4.87;4.43;;;9.30;99.90;;;;;;493051;241;28331;-73
2022/04/24 09:20:50;;;;;;;5.17;4.67;;;9.40;99.90;;;;;;493207;241;27859;-70
2022/04/24 09:22:53;;;;;;;5.43;4.93;;;9.30;99.90;;;;;;493197;241;28586;-71
2022/04/24 09:24:55;;;;;;;4.97;4.43;;;9.30;99.90;;;;;;493179;241;29156;-70
2022/04/24 09:26:54;;;;;;;5.53;4.87;;;9.30;99.90;;;;;;493168;241;28377;-70
2022/04/24 09:28:55;;;;;;;4.90;4.50;;;9.20;99.90;;;;;;490519;241;46999;-73
2022/04/24 09:30:56;;;;;;;5.10;4.70;;;9.20;99.90;;;;;;493218;241;28705;-70
2022/04/24 09:32:59;;;;;;;5.33;4.60;;;9.30;99.90;;;;;;493198;241;27774;-72
2022/04/24 09:34:59;;;;;;;4.77;4.37;;;9.40;99.90;;;;;;493164;241;28045;-72
2022/04/24 09:37:00;;;;;;;4.90;4.50;;;9.40;99.90;;;;;;493185;241;27712;-71
2022/04/24 09:39:01;;;;;;;6.03;5.43;;;9.40;99.90;;;;;;493207;241;27872;-74
2022/04/24 09:41:03;;;;;;;5.10;4.60;;;9.40;99.90;;;;;;493194;241;27994;-70
2022/04/24 09:43:04;;;;;;;4.87;4.47;;;9.50;99.90;;;;;;493198;241;27772;-71
2022/04/24 09:45:05;;;;;;;5.50;5.10;;;9.70;99.90;;;;;;493137;241;27724;-71
2022/04/24 09:47:06;;;;;;;5.90;5.30;;;9.70;99.90;;;;;;493204;241;27936;-71
2022/04/24 09:49:08;;;;;;;5.50;5.00;;;9.60;99.90;;;;;;493195;241;27751;-73
2022/04/24 09:51:09;;;;;;;6.60;5.40;;;9.70;99.90;;;;;;493189;241;27957;-70
2022/04/24 09:53:10;;;;;;;6.00;5.40;;;9.70;99.90;;;;;;493131;241;28012;-71
2022/04/24 09:55:13;;;;;;;6.07;5.30;;;9.80;99.90;;;;;;493161;241;27905;-70
2022/04/24 09:57:13;;;;;;;5.73;5.23;;;9.70;99.90;;;;;;493163;241;28660;-70
2022/04/24 09:59:14;;;;;;;6.10;5.37;;;9.80;99.90;;;;;;493185;241;28427;-72
2022/04/24 10:01:16;;;;;;;6.47;5.87;;;9.80;99.90;;;;;;493192;241;28292;-70
2022/04/24 10:03:16;;;;;;;7.57;5.30;;;9.80;99.90;;;;;;493194;241;28432;-71
2022/04/24 10:05:18;;;;;;;6.03;5.43;;;9.80;99.90;;;;;;493211;241;28327;-71
2022/04/24 10:07:22;;;;;;;5.83;5.33;;;9.80;99.90;;;;;;493198;241;28387;-70
2022/04/24 10:09:20;;;;;;;5.67;5.17;;;9.70;99.90;;;;;;493069;241;27899;-71
2022/04/24 10:11:21;;;;;;;5.50;5.00;;;9.80;99.90;;;;;;493221;241;27955;-71
2022/04/24 10:13:23;;;;;;;5.83;5.27;;;9.90;99.90;;;;;;493200;241;28486;-71
2022/04/24 10:15:24;;;;;;;5.90;5.30;;;10.00;99.90;;;;;;493191;241;27890;-71
2022/04/24 10:17:26;;;;;;;5.33;4.83;;;10.10;99.90;;;;;;493214;241;28007;-71
2022/04/24 10:19:26;;;;;;;5.73;5.13;;;10.10;99.90;;;;;;493227;241;28008;-72
2022/04/24 10:21:28;;;;;;;5.97;5.37;;;10.10;99.90;;;;;;493240;241;27997;-70
2022/04/24 10:23:29;;;;;;;6.50;5.90;;;10.10;99.90;;;;;;493224;241;28134;-71
2022/04/24 10:25:31;;;;;;;7.20;5.50;;;10.10;99.90;;;;;;493199;241;28169;-71
2022/04/24 10:27:31;;;;;;;5.97;5.37;;;10.10;99.90;;;;;;493210;241;28008;-72
2022/04/24 10:29:33;;;;;;;5.77;5.27;;;10.20;99.90;;;;;;493194;241;28532;-72
2022/04/24 10:31:34;;;;;;;5.10;4.57;;;10.30;99.90;;;;;;493211;241;28494;-69
2022/04/24 10:33:35;;;;;;;6.47;5.83;;;10.30;99.90;;;;;;493195;241;28670;-69
2022/04/24 10:35:36;;;;;;;5.73;5.23;;;10.30;99.90;;;;;;493180;241;28619;-71